createdAt,value
2023-03-19T00:00:31.574Z,11.50
2023-03-19T00:02:59.706Z,11.50
2023-03-19T00:05:28.159Z,11.50
2023-03-19T00:07:57.883Z,11.30
2023-03-19T00:10:26.014Z,11.50
2023-03-19T00:12:53.918Z,11.40
2023-03-19T00:15:22.271Z,11.40
2023-03-19T00:17:50.165Z,11.30
2023-03-19T00:20:20.284Z,11.30
2023-03-19T00:22:48.221Z,11.20
2023-03-19T00:25:17.855Z,11.20
2023-03-19T00:27:46.241Z,11.20
2023-03-19T00:30:15.011Z,11.00
2023-03-19T00:32:43.307Z,11.10
2023-03-19T00:35:11.783Z,11.10
2023-03-19T00:37:39.694Z,11.00
2023-03-19T00:40:10.532Z,11.10
2023-03-19T00:42:39.802Z,11.00
2023-03-19T00:45:09.063Z,10.90
2023-03-19T00:47:37.156Z,11.00
2023-03-19T00:50:06.496Z,11.00
2023-03-19T00:52:34.503Z,11.00
2023-03-19T00:55:02.797Z,10.90
2023-03-19T00:57:30.957Z,10.90
2023-03-19T01:00:00.479Z,10.90
2023-03-19T01:02:28.415Z,10.70
2023-03-19T01:04:56.468Z,10.70
2023-03-19T01:07:24.844Z,10.60
2023-03-19T01:09:52.992Z,10.50
2023-03-19T01:12:21.156Z,10.50
2023-03-19T01:14:49.059Z,10.40
2023-03-19T01:17:18.473Z,10.40
2023-03-19T01:19:46.567Z,10.40
2023-03-19T01:22:16.579Z,10.30
2023-03-19T01:24:44.791Z,10.40
2023-03-19T07:51:59.170Z,10.20
2023-03-19T07:54:27.476Z,12.50
2023-03-19T07:56:55.492Z,12.60
2023-03-19T07:59:23.547Z,12.60
2023-03-19T08:01:51.782Z,12.70
2023-03-19T08:04:19.871Z,12.70
2023-03-19T08:06:48.255Z,12.80
2023-03-19T08:09:17.832Z,12.90
2023-03-19T08:11:45.874Z,12.90
2023-03-19T08:14:13.819Z,12.80
2023-03-19T08:16:42.095Z,12.70
2023-03-19T08:19:13.626Z,12.70
2023-03-19T08:21:41.528Z,12.70
2023-03-19T08:24:09.963Z,12.90
2023-03-19T08:26:39.401Z,12.90
2023-03-19T08:29:08.265Z,13.00
2023-03-19T08:31:37.322Z,13.00
2023-03-19T08:34:06.128Z,13.00
2023-03-19T08:36:34.110Z,12.90
2023-03-19T08:39:02.258Z,12.90
2023-03-19T08:41:30.310Z,12.90
2023-03-19T08:43:59.882Z,12.90
2023-03-19T08:46:29.189Z,13.00
2023-03-19T08:48:57.499Z,12.90
2023-03-19T08:51:26.215Z,13.00
2023-03-19T08:53:54.787Z,13.00
2023-03-19T08:56:22.894Z,13.10
2023-03-19T08:58:50.963Z,13.10
2023-03-19T09:01:20.603Z,13.00
2023-03-19T09:03:48.854Z,13.00
2023-03-19T09:06:16.991Z,13.00
2023-03-19T09:08:45.541Z,13.20
2023-03-19T09:11:14.497Z,13.20
2023-03-19T09:13:42.562Z,13.30
2023-03-19T09:16:11.190Z,13.20
2023-03-19T09:18:40.855Z,13.30
2023-03-19T09:21:08.892Z,13.40
2023-03-19T09:23:36.974Z,13.70
2023-03-19T09:26:05.389Z,13.70
2023-03-19T09:28:33.418Z,13.80
2023-03-19T09:31:07.321Z,14.00
2023-03-19T09:33:35.324Z,14.20
2023-03-19T09:36:05.321Z,14.60
2023-03-19T09:38:33.660Z,14.70
2023-03-19T09:41:11.323Z,14.60
2023-03-19T09:43:52.259Z,14.60
2023-03-19T09:46:23.601Z,14.60
2023-03-19T09:48:57.612Z,14.50
2023-03-19T09:51:31.505Z,14.50
2023-03-19T09:54:03.170Z,14.40
2023-03-19T09:56:33.851Z,14.30
2023-03-19T09:59:02.264Z,14.40
2023-03-19T10:01:35.371Z,14.50
2023-03-19T10:04:27.861Z,14.50
2023-03-19T10:07:06.746Z,14.50
2023-03-19T10:09:47.103Z,14.70
2023-03-19T10:12:27.640Z,14.70
2023-03-19T10:15:19.880Z,14.80
2023-03-19T10:17:55.705Z,14.70
2023-03-19T10:20:31.986Z,15.00
2023-03-19T10:23:12.007Z,15.30
2023-03-19T10:25:43.525Z,15.90
2023-03-19T10:28:16.160Z,16.20
2023-03-19T10:30:50.505Z,16.40
2023-03-19T10:33:25.029Z,16.80
2023-03-19T10:35:59.560Z,16.70
2023-03-19T10:38:29.371Z,16.90
2023-03-19T10:41:07.828Z,16.90
2023-03-19T10:43:37.338Z,16.90
2023-03-19T10:46:05.454Z,16.80
2023-03-19T10:48:34.783Z,16.80
2023-03-19T10:51:06.774Z,16.80
2023-03-19T10:53:37.604Z,16.50
2023-03-19T10:56:07.832Z,16.40
2023-03-19T10:58:37.099Z,16.60
2023-03-19T11:01:08.467Z,16.60
2023-03-19T11:03:38.203Z,16.50
2023-03-19T11:06:15.460Z,16.80
2023-03-19T11:08:51.461Z,16.60
2023-03-19T11:11:27.680Z,16.70
2023-03-19T11:13:55.696Z,16.80
2023-03-19T11:16:24.266Z,17.10
2023-03-19T11:18:52.484Z,17.00
2023-03-19T11:21:26.728Z,16.90
2023-03-19T11:24:03.566Z,16.70
2023-03-19T11:26:32.506Z,16.60
2023-03-19T11:29:05.188Z,16.60
2023-03-19T11:31:40.654Z,16.80
2023-03-19T11:34:24.398Z,16.80
2023-03-19T11:37:02.556Z,16.90
2023-03-19T11:39:41.192Z,17.00
2023-03-19T11:42:33.574Z,16.90
2023-03-19T11:45:15.303Z,16.90
2023-03-19T11:47:51.258Z,17.10
2023-03-19T11:50:27.178Z,17.10
2023-03-19T11:53:11.226Z,17.20
2023-03-19T11:55:45.642Z,17.00
2023-03-19T11:58:30.629Z,17.10
2023-03-19T12:01:00.729Z,17.20
2023-03-19T12:04:01.755Z,17.50
2023-03-19T12:06:46.792Z,17.50
2023-03-19T12:09:24.956Z,17.70
2023-03-19T12:11:59.747Z,17.40
2023-03-19T12:14:40.486Z,17.60
2023-03-19T12:17:26.136Z,17.30
2023-03-19T12:20:11.798Z,17.20
2023-03-19T12:22:50.992Z,17.30
2023-03-19T12:25:29.894Z,17.30
2023-03-19T12:28:04.178Z,17.30
2023-03-19T12:30:37.595Z,17.60
2023-03-19T12:33:15.396Z,17.60
2023-03-19T12:35:47.354Z,17.70
2023-03-19T12:38:23.734Z,17.70
2023-03-19T12:40:55.134Z,17.70
2023-03-19T12:43:29.393Z,17.70
2023-03-19T12:46:03.391Z,17.80
2023-03-19T12:48:36.829Z,17.50
2023-03-19T12:51:10.335Z,17.50
2023-03-19T12:53:48.701Z,17.20
2023-03-19T12:56:22.346Z,17.40
2023-03-19T12:59:00.058Z,17.30
2023-03-19T13:01:34.430Z,17.30
2023-03-19T13:04:10.232Z,17.40
2023-03-19T13:06:42.487Z,17.30
2023-03-19T13:09:17.533Z,17.10
2023-03-19T13:11:50.015Z,16.80
2023-03-19T13:14:25.935Z,16.80
2023-03-19T13:16:58.710Z,16.90
2023-03-19T13:19:32.832Z,16.80
2023-03-19T13:22:04.674Z,16.80
2023-03-19T13:24:36.249Z,16.80
2023-03-19T13:27:04.863Z,16.90
2023-03-19T13:29:36.928Z,17.00
2023-03-19T13:32:09.066Z,16.90
2023-03-19T13:34:38.501Z,16.90
2023-03-19T13:37:13.946Z,16.80
2023-03-19T13:39:43.237Z,16.80
2023-03-19T13:42:33.967Z,16.60
2023-03-19T13:45:05.308Z,16.10
2023-03-19T13:47:44.241Z,16.00
2023-03-19T13:50:31.071Z,16.00
2023-03-19T13:53:37.942Z,16.00
2023-03-19T13:56:15.955Z,16.00
2023-03-19T13:58:53.131Z,16.00
2023-03-19T14:01:44.841Z,16.00
2023-03-19T14:04:28.030Z,16.00
2023-03-19T14:06:59.385Z,16.10
2023-03-19T14:09:39.713Z,16.00
2023-03-19T14:12:24.509Z,16.10
2023-03-19T14:14:56.050Z,16.10
2023-03-19T14:17:29.244Z,16.30
2023-03-19T14:20:07.183Z,16.20
2023-03-19T14:22:39.918Z,16.30
2023-03-19T14:25:18.680Z,16.20
2023-03-19T14:27:49.378Z,16.20
2023-03-19T14:30:27.935Z,16.10
2023-03-19T14:33:02.315Z,16.20
2023-03-19T14:35:36.556Z,16.20
2023-03-19T14:38:12.758Z,16.30
2023-03-19T14:40:46.702Z,16.20
2023-03-19T14:43:27.170Z,16.10
2023-03-19T14:46:01.220Z,16.00
2023-03-19T14:49:15.885Z,16.00
2023-03-19T14:51:56.646Z,15.80
2023-03-19T14:54:36.912Z,15.70
2023-03-19T14:57:08.817Z,16.10
2023-03-19T14:59:40.465Z,16.10
2023-03-19T15:02:29.152Z,16.20
2023-03-19T15:05:00.684Z,16.40
2023-03-19T15:07:33.208Z,16.40
2023-03-19T15:10:06.650Z,16.40
2023-03-19T15:12:52.679Z,16.20
2023-03-19T15:15:44.533Z,16.30
2023-03-19T15:18:16.352Z,16.30
2023-03-19T15:20:47.226Z,16.40
2023-03-19T15:23:27.338Z,16.20
2023-03-19T15:25:57.939Z,16.10
2023-03-19T15:28:28.339Z,16.20
2023-03-19T15:31:05.638Z,16.10
2023-03-19T15:33:45.606Z,15.90
2023-03-19T15:36:19.289Z,16.00
2023-03-19T15:38:51.047Z,15.90
2023-03-19T15:41:20.580Z,15.90
2023-03-19T15:43:48.840Z,15.90
2023-03-19T15:46:20.643Z,15.90
2023-03-19T15:48:51.485Z,15.90
2023-03-19T15:51:23.230Z,15.60
2023-03-19T15:53:51.702Z,15.60
2023-03-19T15:56:21.672Z,15.60
2023-03-19T15:58:53.342Z,15.50
2023-03-19T16:01:22.499Z,15.60
2023-03-19T16:03:56.314Z,15.70
2023-03-19T16:06:28.336Z,15.70
2023-03-19T16:09:07.518Z,15.70
2023-03-19T16:11:37.905Z,15.60
2023-03-19T16:14:12.501Z,15.70
2023-03-19T16:16:42.345Z,15.60
2023-03-19T16:19:35.931Z,15.60
2023-03-19T16:22:13.813Z,15.50
2023-03-19T16:24:43.957Z,15.40
2023-03-19T16:27:15.305Z,15.30
2023-03-19T16:29:45.576Z,15.30
2023-03-19T16:32:22.054Z,15.20
2023-03-19T16:34:52.214Z,15.10
2023-03-19T16:37:35.922Z,15.10
2023-03-19T16:40:33.048Z,15.10
2023-03-19T16:43:08.911Z,15.10
2023-03-19T16:45:37.346Z,15.10
2023-03-19T16:48:05.947Z,15.10
2023-03-19T16:50:37.128Z,15.10
2023-03-19T16:53:14.150Z,14.90
2023-03-19T16:55:42.356Z,14.90
2023-03-19T16:58:15.132Z,14.90
2023-03-19T17:00:44.441Z,14.80
2023-03-19T17:03:14.913Z,14.70
2023-03-19T17:05:43.337Z,14.70
2023-03-19T17:08:13.700Z,14.70
2023-03-19T17:10:45.911Z,14.60
2023-03-19T17:13:19.281Z,14.50
2023-03-19T17:15:49.766Z,14.50
2023-03-19T17:18:20.879Z,14.30
2023-03-19T17:20:53.277Z,14.40
2023-03-19T17:23:24.480Z,14.30
2023-03-19T17:25:53.053Z,14.30
2023-03-19T17:28:21.144Z,14.30
2023-03-19T17:30:49.114Z,14.30
2023-03-19T17:33:24.938Z,14.10
2023-03-19T17:35:53.458Z,14.00
2023-03-19T17:38:26.941Z,14.00
2023-03-19T17:40:55.013Z,13.90
2023-03-19T17:43:22.865Z,13.90
2023-03-19T17:45:51.379Z,13.90
2023-03-19T17:48:22.725Z,13.80
2023-03-19T17:50:51.471Z,13.80
2023-03-19T17:53:20.019Z,13.80
2023-03-19T17:55:49.430Z,13.80
2023-03-19T17:58:19.560Z,13.80
2023-03-19T18:00:48.647Z,13.70
2023-03-19T18:03:18.908Z,13.80
2023-03-19T18:05:46.908Z,13.70
2023-03-19T18:08:17.379Z,13.70
2023-03-19T18:10:45.872Z,13.70
2023-03-19T18:13:15.358Z,13.70
2023-03-19T18:15:45.621Z,13.70
2023-03-19T18:18:18.152Z,13.80
2023-03-19T18:20:47.665Z,13.50
2023-03-19T18:23:16.690Z,13.60
2023-03-19T18:25:45.637Z,13.50
2023-03-19T18:28:15.051Z,13.60
2023-03-19T18:30:44.382Z,13.50
2023-03-19T18:33:16.327Z,13.40
2023-03-19T18:35:46.383Z,13.50
2023-03-19T18:38:16.883Z,13.40
2023-03-19T18:40:45.216Z,13.40
2023-03-19T18:43:16.307Z,13.40
2023-03-19T18:45:46.621Z,13.40
2023-03-19T18:48:22.199Z,13.40
2023-03-19T18:50:50.616Z,13.50
2023-03-19T18:53:18.543Z,13.50
2023-03-19T18:55:47.395Z,13.50
2023-03-19T18:58:20.679Z,13.50
2023-03-19T19:00:49.417Z,13.40
2023-03-19T19:03:21.068Z,13.50
2023-03-19T19:05:49.802Z,13.50
2023-03-19T19:08:19.786Z,13.50
2023-03-19T19:10:49.899Z,13.50
2023-03-19T19:13:22.397Z,13.60
2023-03-19T19:15:50.822Z,13.60
2023-03-19T19:18:20.581Z,13.60
2023-03-19T19:20:51.517Z,13.60
2023-03-19T19:23:20.636Z,13.60
2023-03-19T19:25:50.982Z,13.60
2023-03-19T19:28:26.841Z,13.50
2023-03-19T19:30:57.262Z,13.50
2023-03-19T19:33:28.743Z,13.50
2023-03-19T19:35:57.250Z,13.40
2023-03-19T19:38:25.728Z,13.30
2023-03-19T19:40:58.190Z,13.30
2023-03-19T19:43:31.234Z,13.40
2023-03-19T19:46:00.412Z,13.30
2023-03-19T19:48:30.618Z,13.30
2023-03-19T19:50:59.115Z,13.30
2023-03-19T19:53:29.553Z,13.30
2023-03-19T19:55:57.817Z,13.30
2023-03-19T19:58:29.343Z,13.20
2023-03-19T20:01:03.928Z,13.20
2023-03-19T20:03:34.236Z,13.30
2023-03-19T20:06:03.210Z,13.30
2023-03-19T20:08:31.191Z,13.20
2023-03-19T20:10:59.240Z,13.30
2023-03-19T20:13:30.905Z,13.20
2023-03-19T20:15:59.763Z,13.20
2023-03-19T20:18:31.028Z,13.10
2023-03-19T20:21:00.307Z,13.10
2023-03-19T20:23:28.824Z,13.00
2023-03-19T20:25:58.171Z,13.00
2023-03-19T20:28:32.656Z,13.00
2023-03-19T20:31:01.685Z,13.10
2023-03-19T20:33:31.215Z,13.00
2023-03-19T20:35:59.377Z,13.00
2023-03-19T20:38:29.211Z,12.90
2023-03-19T20:40:58.912Z,12.80
2023-03-19T20:43:30.632Z,12.70
2023-03-19T20:46:01.843Z,12.50
2023-03-19T20:48:30.804Z,12.40
2023-03-19T20:50:59.421Z,12.40
2023-03-19T20:53:27.848Z,12.60
2023-03-19T20:55:56.338Z,12.60
2023-03-19T20:58:27.630Z,12.60
2023-03-19T21:00:57.915Z,12.40
2023-03-19T21:03:28.149Z,12.50
2023-03-19T21:06:02.141Z,12.30
2023-03-19T21:08:34.228Z,12.40
2023-03-19T21:11:03.288Z,12.40
2023-03-19T21:13:32.436Z,12.40
2023-03-19T21:16:02.296Z,12.40
2023-03-19T21:18:30.726Z,12.30
2023-03-19T21:20:59.919Z,12.10
2023-03-19T21:23:31.475Z,11.90
2023-03-19T21:26:00.639Z,11.70
2023-03-19T21:28:32.697Z,11.70
2023-03-19T21:31:02.544Z,11.60
2023-03-19T21:33:33.025Z,11.60
2023-03-19T21:36:02.689Z,11.60
2023-03-19T21:38:32.972Z,11.40
2023-03-19T21:41:04.076Z,11.50
2023-03-19T21:43:35.242Z,11.40
2023-03-19T21:46:22.953Z,11.30
2023-03-19T21:48:52.435Z,11.20
2023-03-19T21:51:20.508Z,11.40
2023-03-19T21:53:49.004Z,11.40
2023-03-19T21:56:22.686Z,11.30
2023-03-19T21:58:52.531Z,11.20
2023-03-19T22:01:24.336Z,11.30
2023-03-19T22:03:53.009Z,11.20
2023-03-19T22:06:22.175Z,11.30
2023-03-19T22:08:51.650Z,11.20
2023-03-19T22:11:24.207Z,11.20
2023-03-19T22:13:52.277Z,11.10
2023-03-19T22:16:24.822Z,11.10
2023-03-19T22:18:53.575Z,11.20
2023-03-19T22:21:23.548Z,11.00
2023-03-19T22:23:52.347Z,11.10
2023-03-19T22:26:28.744Z,11.00
2023-03-19T22:28:58.335Z,11.10
2023-03-19T22:31:28.617Z,11.10
2023-03-19T22:33:57.223Z,11.20
2023-03-19T22:36:25.520Z,11.10
2023-03-19T22:38:53.462Z,11.20
2023-03-19T22:41:27.856Z,11.20
2023-03-19T22:43:57.217Z,11.20
2023-03-19T22:46:27.811Z,11.30
2023-03-19T22:48:56.668Z,11.30
2023-03-19T22:51:27.467Z,11.30
2023-03-19T22:53:56.208Z,11.20
2023-03-19T22:56:24.559Z,11.20
2023-03-19T22:58:52.985Z,11.20
2023-03-19T23:01:34.817Z,11.20
2023-03-19T23:04:18.170Z,11.20
2023-03-19T23:06:46.718Z,11.10
2023-03-19T23:09:16.944Z,11.20
2023-03-19T23:11:45.092Z,11.20
2023-03-19T23:14:27.923Z,11.20
2023-03-19T23:17:00.054Z,11.10
2023-03-19T23:19:31.149Z,11.20
2023-03-19T23:22:00.517Z,11.20
2023-03-19T23:24:30.397Z,11.10
2023-03-19T23:26:59.741Z,11.10
2023-03-19T23:29:31.247Z,11.10
2023-03-19T23:32:00.894Z,11.00
2023-03-19T23:34:29.701Z,11.00
2023-03-19T23:36:59.796Z,11.00
2023-03-19T23:39:28.513Z,11.00
2023-03-19T23:41:59.133Z,11.00
2023-03-19T23:44:28.891Z,10.90
2023-03-19T23:46:59.352Z,11.00
2023-03-19T23:49:30.164Z,10.90
2023-03-19T23:51:59.091Z,10.90
2023-03-19T23:54:30.081Z,10.90
2023-03-19T23:56:59.898Z,10.80
2023-03-19T23:59:30.606Z,10.80
